Mill Rose Farm Restricted Landing Area

Jump to: basic info | weather | runways | comments

Related pages: nearby airports | nearby navaids | notams | map

Basic information (top)

Codes: IL68
Location: lon 42.077202, lat -88.159798, elev 850 ft / 259 m msl
Status: small_airport

Weather (top)

Current conditions for Dupage Airport 11nm (20km) SSW (rec'd 2014/04/25 08:52Z):

KDPA 250852Z 33006KT 7SM SCT015 BKN075 08/07 A2965 RMK AO2 SLP039 60015 T00830067 51002

Airport forecast for Dupage Airport 11nm (20km) SSW (rec'd 2014/04/25 06:27Z):

TAF KDPA 250525Z 2506/2606 05007KT 6SM -SHRA SCT015 OVC050 
      TEMPO 2507/2509 5SM -RA SCT009 OVC015 
     FM251000 34010KT P6SM BKN020 
     FM251300 33012G17KT P6SM FEW040 
     FM251600 30015G23KT P6SM FEW250 
     FM260100 27010KT P6SM BKN100

Runways (top)

N/S: 2,500 x 100 ft (762 x 30 m) — grass — lighted

Latest comments (top)

No comments yet for Mill Rose Farm Restricted Landing Area

More... (top)

See also NOTAMs and nearby airports and navaids, or visit the Mill Rose Farm Restricted Landing Area page at the main OurAirports website..